ADDS METAR Data INFO
IDs: Format: Raw Decoded Include TAF

Data at: 2030 UTC 16 Dec 2017

KAKR 161954Z AUTO 24010KT 10SM SCT095 06/M03 A2999 RMK AO2 SLP162 T00561028
KAKR 161854Z AUTO 22010KT 10SM OVC095 04/M03 A2997 RMK AO2 SLP158 T00441028
KAKR 161754Z AUTO 23009KT 10SM SCT100 03/M03 A2998 RMK AO2 SLP162 T00331028 10033 21006 58001
KAKR 161654Z AUTO 23009KT 10SM BKN055 OVC070 02/M03 A3000 RMK AO2 SLP168 T00221033
KAKR 161554Z AUTO 22012KT 10SM BKN075 OVC090 02/M04 A3000 RMK AO2 SLP168 T00171039
KAKR 161454Z AUTO 22011KT 10SM OVC090 01/M04 A2999 RMK AO2 SLP164 T00111039 51005
KAKR 161354Z AUTO 22009KT 10SM OVC085 01/M04 A2998 RMK AO2 SLP163 T00061044
KAKR 161254Z AUTO 22011KT 10SM SCT065 OVC075 00/M04 A2998 RMK AO2 SLP165 T00001044
KAKR 161154Z AUTO 21010KT 10SM OVC060 M01/M04 A2997 RMK AO2 SNE20 SLP160 P0000 60000 T10061039 11006 21022 53002
KAKR 161125Z AUTO 22009KT 9SM SCT034 OVC055 M01/M04 A2997 RMK AO2 SNE20 P0000 T10061039
KAKR 161113Z AUTO 22010KT 4SM -SN BR BKN028 OVC055 M01/M03 A2997 RMK AO2 P0000 T10111033
KAKR 161054Z AUTO 23010KT 2 1/2SM -SN BKN036 OVC060 M01/M04 A2997 RMK AO2 SLP160 P0000 T10111039
KAKR 161009Z AUTO 23011KT 3SM -SN OVC036 M01/M04 A2997 RMK AO2 P0000 T10111039
KAKR 160954Z AUTO 23009KT 3SM -SN BR OVC025 M02/M04 A2996 RMK AO2 SLP159 P0000 T10171039
KAKR 160923Z AUTO 22009KT 2 1/2SM -SN BKN029 BKN041 OVC048 M01/M04 A2997 RMK AO2 P0000 T10111044
KAKR 160854Z AUTO 23010KT 6SM -SN FEW036 BKN047 OVC075 M01/M04 A2997 RMK AO2 SNB0756 SLP161 P0000 60000 T10111044 50007
KAKR 160754Z AUTO 23012KT 10SM BKN039 OVC046 M01/M06 A2998 RMK AO2 SLP162 T10111061
KAKR 160654Z AUTO 23013G20KT 10SM BKN049 BKN065 OVC100 M02/M07 A2996 RMK AO2 SLP157 T10171072
KAKR 160554Z AUTO 23013G18KT 10SM BKN060 OVC100 M02/M07 A2995 RMK AO2 SLP156 60000 T10221072 11022 21044 58001
KAKR 160454Z AUTO 22010KT 10SM BKN039 OVC060 M02/M08 A2997 RMK AO2 SNB23E32 SLP160 P0000 T10221078 410221150
KAKR 160354Z AUTO 22009KT 10SM OVC034 M03/M09 A2997 RMK AO2 SLP163 T10281089
KAKR 160254Z AUTO 23008KT 10SM OVC055 M03/M09 A2996 RMK AO2 SLP159 60000 T10331089 53009
KAKR 160154Z AUTO 25009KT 10SM FEW028 SCT034 SCT044 M04/M08 A2994 RMK AO2 SNB18E32 SLP157 P0000 T10441083
KAKR 160054Z AUTO 28012G19KT 10SM FEW024 OVC034 M03/M08 A2993 RMK AO2 SNE2356B25E48 SLP152 P0000 T10331078
KAKR 160049Z AUTO 28014G19KT 9SM FEW024 OVC034 M03/M07 A2993 RMK AO2 SNE2356B25E48 P0000
KAKR 152354Z AUTO 27008KT 8SM -SN BKN026 BKN030 OVC048 M03/M07 A2991 RMK AO2 SNB03E12B36 SLP146 P0000 60000 T10281072 11028 21044 53012
KAKR 152254Z AUTO 25010KT 10SM OVC050 M03/M08 A2989 RMK AO2 SNE11 SLP138 P0000 T10331078
KAKR 152217Z AUTO 25012KT 10SM SCT023 OVC050 M03/M07 A2988 RMK AO2 SNE11 P0000 T10331067
KAKR 152208Z AUTO 26014G22KT 3SM -SN BKN015 BKN037 OVC060 M04/M07 A2987 RMK AO2 P0000 T10391067
KAKR 152200Z AUTO 26013G19KT 1SM -SN BR BKN015 OVC037 M04/M06 A2987 RMK AO2 P0000 T10391056
KAKR 152154Z AUTO 26011KT 1/4SM SN FZFG BKN010 OVC015 M03/M06 A2987 RMK AO2 SLP133 P0000 T10331056
KAKR 152149Z AUTO 27011KT 1/4SM +SN FZFG BKN010 OVC015 M03/M06 A2988 RMK AO2 P0000
KAKR 152140Z AUTO 31010KT 3/4SM -SN OVC017 M03/M06 A2987 RMK AO2 P0000 T10331061
KAKR 152108Z AUTO 23012KT 2 1/2SM -SN BKN025 OVC031 M03/M07 A2986 RMK AO2 VIS 1 3/4V4 P0000 T10281072
KAKR 152054Z AUTO 23011G19KT 3SM -SN FEW026 BKN031 OVC039 M03/M08 A2985 RMK AO2 SNB47 SLP125 P0000 60000 T10281078 55001
KAKR 152049Z AUTO 22015G19KT 5SM -SN BKN031 OVC039 M03/M08 A2985 RMK AO2 SNB47 P0000
KAKR 152016Z AUTO 22011KT 10SM OVC028 M03/M08 A2985 RMK AO2 T10281083
KAKR 151954Z AUTO 23009KT 10SM OVC032 M03/M09 A2985 RMK AO2 SLP125 T10281089
KAKR 151854Z AUTO 23014G21KT 10SM OVC043 M03/M10 A2985 RMK AO2 SLP125 T10331100
KAKR 151754Z AUTO 20012KT 10SM OVC043 M04/M11 A2987 RMK AO2 SLP131 T10441106 11044 21128 58023
KAKR 151654Z AUTO 21011KT 10SM OVC043 M05/M11 A2990 RMK AO2 SLP141 T10501111
KAKR 151554Z AUTO 21009KT 10SM BKN045 OVC100 M07/M12 A2993 RMK AO2 SLP152 T10671117
KAKR 151454Z AUTO 21006KT 10SM FEW043 BKN090 OVC100 M08/M12 A2994 RMK AO2 SLP157 T10831122 56012
KAKR 151354Z AUTO 00000KT 10SM BKN110 M11/M13 A2995 RMK AO2 SLP160 T11061133
KAKR 151254Z AUTO 20003KT 10SM CLR M12/M14 A2996 RMK AO2 SLP165 T11171144
KAKR 151154Z AUTO 00000KT 10SM CLR M12/M15 A2997 RMK AO2 SLP170 I1000 I6000 T11221150 11100 21150 55008
KAKR 151054Z AUTO 17003KT 10SM CLR M13/M16 A2997 RMK AO2 SLP166 T11281156
KAKR 150954Z AUTO 17005KT 9SM CLR M12/M15 A2998 RMK AO2 SLP169 T11221150
KAKR 150946Z AUTO 17003KT 5SM BR CLR M14/M16 A2998 RMK AO2 T11391156
KAKR 150937Z AUTO 00000KT 2 1/2SM BR CLR M14/M16 A2998 RMK AO2 T11391156
KAKR 150917Z AUTO 00000KT 3SM BR CLR M14/M17 A2999 RMK AO2 T11441167
KAKR 150912Z AUTO 00000KT 1 1/4SM BR CLR M14/M16 A2999 RMK AO2 VIS 3/4V4 T11391161
KAKR 150901Z AUTO 00000KT 3/4SM BR CLR M14/M16 A2999 RMK AO2 T11391161
KAKR 150854Z AUTO 00000KT 1SM BR CLR M14/M16 A3000 RMK AO2 SLP176 T11391161 58006
KAKR 150851Z AUTO 00000KT 1 1/2SM BR CLR M14/M16 A3000 RMK AO2